createdAt,value
2023-01-27T00:01:05.878Z,6.30
2023-01-27T00:03:33.610Z,6.43
2023-01-27T00:06:01.681Z,6.11
2023-01-27T00:08:29.852Z,6.04
2023-01-27T00:11:20.531Z,6.21
2023-01-27T00:13:48.704Z,6.34
2023-01-27T00:16:16.792Z,6.03
2023-01-27T00:18:44.977Z,6.01
2023-01-27T00:21:38.906Z,6.07
2023-01-27T00:24:25.604Z,6.10
2023-01-27T00:26:53.639Z,6.24
2023-01-27T00:29:21.197Z,6.20
2023-01-27T00:32:07.789Z,6.30
2023-01-27T00:34:35.834Z,6.13
2023-01-27T00:37:05.643Z,6.16
2023-01-27T00:39:34.556Z,5.96
2023-01-27T00:42:02.330Z,6.08
2023-01-27T00:44:29.844Z,6.05
2023-01-27T00:46:57.664Z,5.99
2023-01-27T00:49:25.551Z,6.07
2023-01-27T00:51:53.015Z,6.15
2023-01-27T00:54:21.266Z,6.06
2023-01-27T00:56:49.402Z,6.18
2023-01-27T00:59:17.321Z,6.34
2023-01-27T01:01:46.081Z,6.13
2023-01-27T01:04:14.000Z,6.07
2023-01-27T01:06:42.121Z,6.15
2023-01-27T01:09:10.538Z,6.25
2023-01-27T01:11:38.092Z,5.87
2023-01-27T01:14:06.081Z,5.78
2023-01-27T01:16:33.673Z,5.81
2023-01-27T01:19:02.727Z,5.81
2023-01-27T01:21:30.485Z,5.99
2023-01-27T01:23:59.236Z,6.03
2023-01-27T01:26:27.285Z,6.09
2023-01-27T01:28:55.128Z,5.83
2023-01-27T01:31:22.631Z,5.91
2023-01-27T01:33:50.614Z,6.03
2023-01-27T01:36:20.958Z,5.97
2023-01-27T01:38:48.726Z,5.99
2023-01-27T01:41:20.207Z,6.10
2023-01-27T01:43:51.761Z,5.94
2023-01-27T01:46:20.279Z,5.91
2023-01-27T01:48:49.411Z,5.91
2023-01-27T01:51:20.160Z,5.86
2023-01-27T01:53:48.703Z,5.78
2023-01-27T01:56:34.888Z,5.89
2023-01-27T01:59:07.292Z,5.69
2023-01-27T02:01:34.870Z,5.76
2023-01-27T02:04:07.045Z,5.58
2023-01-27T02:06:49.979Z,5.59
2023-01-27T02:09:20.370Z,5.51
2023-01-27T02:11:48.101Z,5.62
2023-01-27T02:14:17.722Z,5.69
2023-01-27T02:16:45.945Z,5.78
2023-01-27T02:19:38.273Z,5.93
2023-01-27T02:22:11.169Z,5.81
2023-01-27T02:24:47.277Z,5.82
2023-01-27T02:27:14.937Z,5.59
2023-01-27T02:29:42.556Z,5.50
2023-01-27T02:32:23.453Z,5.58
2023-01-27T02:34:53.993Z,5.63
2023-01-27T02:37:23.916Z,5.74
2023-01-27T02:39:54.115Z,5.78
2023-01-27T02:42:22.075Z,5.77
2023-01-27T02:44:50.856Z,5.59
2023-01-27T02:47:18.453Z,5.65
2023-01-27T02:49:46.305Z,5.66
2023-01-27T02:52:14.191Z,5.66
2023-01-27T02:54:41.952Z,5.77
2023-01-27T02:57:09.559Z,5.59
2023-01-27T02:59:48.311Z,5.51
2023-01-27T03:02:22.881Z,5.69
2023-01-27T03:04:50.922Z,5.74
2023-01-27T03:07:20.994Z,5.71
2023-01-27T03:09:49.191Z,5.83
2023-01-27T03:12:22.788Z,5.75
2023-01-27T03:15:11.798Z,5.77
2023-01-27T03:17:58.267Z,5.62
2023-01-27T03:20:26.551Z,5.76
2023-01-27T03:22:54.444Z,5.40
2023-01-27T03:25:24.476Z,5.63
2023-01-27T03:27:53.465Z,5.69
2023-01-27T03:30:29.433Z,5.75
2023-01-27T03:33:08.819Z,5.90
2023-01-27T03:35:49.806Z,5.80
2023-01-27T03:38:41.102Z,5.90
2023-01-27T03:41:27.407Z,6.03
2023-01-27T03:44:13.723Z,5.91
2023-01-27T03:46:41.518Z,5.77
2023-01-27T03:49:10.090Z,5.86
2023-01-27T03:51:37.586Z,5.92
2023-01-27T03:54:05.189Z,5.74
2023-01-27T03:56:32.973Z,5.80
2023-01-27T03:59:00.676Z,5.83
2023-01-27T04:01:29.028Z,5.62
2023-01-27T04:04:15.088Z,5.52
2023-01-27T04:06:58.252Z,5.71
2023-01-27T04:09:32.043Z,5.77
2023-01-27T04:12:01.245Z,5.76
2023-01-27T04:14:32.846Z,5.96
2023-01-27T04:17:04.269Z,5.86
2023-01-27T04:19:32.904Z,5.90
2023-01-27T04:22:01.900Z,5.99
2023-01-27T04:24:30.443Z,5.99
2023-01-27T04:27:00.659Z,5.81
2023-01-27T04:29:30.545Z,5.94
2023-01-27T04:31:58.542Z,5.85
2023-01-27T04:34:27.620Z,5.82
2023-01-27T04:36:56.271Z,5.85
2023-01-27T04:39:25.986Z,5.85
2023-01-27T04:41:53.651Z,5.84
2023-01-27T04:44:21.650Z,5.85
2023-01-27T04:46:50.045Z,5.79
2023-01-27T04:49:19.152Z,5.77
2023-01-27T04:51:47.469Z,5.80
2023-01-27T04:54:16.324Z,5.85
2023-01-27T04:56:56.708Z,5.95
2023-01-27T04:59:25.397Z,5.45
2023-01-27T05:01:53.059Z,5.41
2023-01-27T05:04:21.228Z,5.44
2023-01-27T05:06:49.064Z,5.47
2023-01-27T05:09:17.482Z,5.57
2023-01-27T05:11:44.973Z,5.63
2023-01-27T05:14:13.991Z,5.65
2023-01-27T05:16:41.975Z,5.65
2023-01-27T05:19:09.979Z,5.76
2023-01-27T05:21:37.536Z,5.77
2023-01-27T05:24:05.294Z,5.73
2023-01-27T05:26:33.261Z,5.72
2023-01-27T05:29:00.873Z,5.70
2023-01-27T05:31:31.802Z,5.81
2023-01-27T05:34:00.770Z,5.82
2023-01-27T05:36:29.955Z,5.92
2023-01-27T05:38:58.937Z,5.97
2023-01-27T05:41:28.386Z,5.74
2023-01-27T05:43:56.057Z,5.84
2023-01-27T05:46:30.021Z,5.74
2023-01-27T05:49:05.222Z,5.76
2023-01-27T05:51:36.165Z,5.80
2023-01-27T05:54:04.213Z,5.75
2023-01-27T05:56:32.417Z,5.83
2023-01-27T05:59:00.648Z,5.98
2023-01-27T06:01:34.215Z,5.89
2023-01-27T06:04:02.061Z,5.68
2023-01-27T06:06:31.968Z,5.72
2023-01-27T06:09:00.360Z,5.82
2023-01-27T06:11:28.150Z,5.80
2023-01-27T06:13:55.718Z,5.85
2023-01-27T06:16:23.982Z,5.93
2023-01-27T06:18:51.809Z,5.92
2023-01-27T06:21:20.768Z,5.79
2023-01-27T06:23:48.802Z,5.90
2023-01-27T06:26:18.532Z,5.94
2023-01-27T06:28:46.324Z,5.76
2023-01-27T06:31:16.406Z,5.71
2023-01-27T06:33:46.207Z,5.69
2023-01-27T06:36:16.996Z,5.82
2023-01-27T06:38:45.736Z,5.77
2023-01-27T06:41:13.688Z,5.96
2023-01-27T06:43:42.475Z,6.02
2023-01-27T06:46:10.392Z,6.05
2023-01-27T06:48:38.145Z,6.08
2023-01-27T06:51:05.888Z,6.12
2023-01-27T06:53:34.913Z,6.14
2023-01-27T06:56:02.624Z,6.10
2023-01-27T06:58:31.026Z,6.11
2023-01-27T07:00:59.203Z,6.09
2023-01-27T07:03:26.898Z,6.22
2023-01-27T07:05:54.533Z,6.20
2023-01-27T07:08:22.035Z,6.42
2023-01-27T07:10:49.747Z,6.32
2023-01-27T07:13:18.848Z,6.21
2023-01-27T07:15:46.888Z,6.35
2023-01-27T07:18:14.713Z,6.31
2023-01-27T07:20:42.763Z,6.16
2023-01-27T07:23:11.248Z,6.13
2023-01-27T07:25:39.578Z,6.27
2023-01-27T07:28:07.705Z,6.12
2023-01-27T07:30:35.546Z,6.31
2023-01-27T07:33:20.916Z,6.42
2023-01-27T07:35:50.019Z,6.58
2023-01-27T07:38:18.529Z,6.60
2023-01-27T07:40:46.080Z,6.57
2023-01-27T07:43:13.856Z,6.58
2023-01-27T07:45:41.697Z,6.72
2023-01-27T07:48:09.650Z,6.84
2023-01-27T07:50:39.971Z,6.80
2023-01-27T07:53:07.719Z,6.73
2023-01-27T07:55:35.423Z,6.87
2023-01-27T07:58:03.475Z,7.05
2023-01-27T08:00:31.990Z,6.92
2023-01-27T08:03:01.338Z,6.85
2023-01-27T08:05:32.259Z,6.90
2023-01-27T08:08:03.895Z,7.20
2023-01-27T08:10:32.715Z,7.28
2023-01-27T08:13:00.332Z,7.19
2023-01-27T08:15:28.028Z,7.34
2023-01-27T08:17:59.505Z,7.38
2023-01-27T08:20:28.101Z,7.29
2023-01-27T08:22:56.593Z,7.56
2023-01-27T08:25:25.458Z,7.55
2023-01-27T08:27:54.772Z,7.40
2023-01-27T08:30:23.508Z,7.18
2023-01-27T08:32:51.018Z,7.46
2023-01-27T08:35:18.662Z,7.42
2023-01-27T08:37:48.778Z,7.45
2023-01-27T08:40:17.075Z,7.57
2023-01-27T08:42:44.664Z,7.48
2023-01-27T08:45:12.640Z,7.67
2023-01-27T08:47:40.314Z,7.79
2023-01-27T08:50:08.928Z,8.10
2023-01-27T08:52:36.542Z,8.25
2023-01-27T08:55:04.485Z,8.39
2023-01-27T08:57:32.754Z,8.41
2023-01-27T09:00:00.649Z,8.12
2023-01-27T09:02:28.662Z,8.20
2023-01-27T09:04:56.588Z,8.29
2023-01-27T09:07:24.656Z,8.20
2023-01-27T09:10:01.044Z,7.95
2023-01-27T09:12:35.904Z,8.00
2023-01-27T09:15:03.978Z,8.11
2023-01-27T09:17:32.065Z,8.15
2023-01-27T09:19:59.699Z,8.53
2023-01-27T09:22:27.724Z,8.35
2023-01-27T09:24:55.393Z,8.22
2023-01-27T09:27:38.111Z,8.25
2023-01-27T09:30:06.822Z,8.34
2023-01-27T09:32:34.308Z,8.00
2023-01-27T09:35:02.362Z,8.01
2023-01-27T09:37:32.877Z,8.15
2023-01-27T09:40:04.205Z,8.08
2023-01-27T09:42:46.949Z,7.80
2023-01-27T09:45:20.708Z,7.56
2023-01-27T09:48:27.075Z,7.59
2023-01-27T09:51:21.979Z,7.65
2023-01-27T09:54:15.053Z,7.56
2023-01-27T09:56:49.233Z,7.48
2023-01-27T09:59:43.205Z,7.80
2023-01-27T10:02:41.568Z,8.05
2023-01-27T10:05:27.589Z,7.71
2023-01-27T10:08:32.916Z,7.73
2023-01-27T10:11:06.795Z,8.07
2023-01-27T10:13:42.896Z,8.16
2023-01-27T10:16:13.823Z,8.21
2023-01-27T10:18:53.510Z,7.76
2023-01-27T10:22:02.552Z,7.86
2023-01-27T10:25:37.924Z,7.83
2023-01-27T10:28:12.683Z,7.65
2023-01-27T10:31:04.912Z,7.91
2023-01-27T10:33:51.571Z,7.65
2023-01-27T10:36:32.383Z,7.64
2023-01-27T10:39:18.421Z,7.61
2023-01-27T10:42:17.884Z,7.88
2023-01-27T10:45:04.119Z,7.90
2023-01-27T10:47:56.474Z,8.05
2023-01-27T10:50:50.832Z,8.19
2023-01-27T10:53:31.137Z,8.43
2023-01-27T10:56:04.336Z,8.32
2023-01-27T10:58:42.907Z,8.40
2023-01-27T11:01:21.425Z,8.70
2023-01-27T11:04:30.982Z,8.85
2023-01-27T11:06:59.729Z,9.21
2023-01-27T11:09:37.528Z,9.21
2023-01-27T11:12:13.619Z,8.81
2023-01-27T11:14:47.759Z,9.02
2023-01-27T11:17:32.384Z,8.51
2023-01-27T11:20:18.478Z,8.88
2023-01-27T11:23:05.523Z,8.93
2023-01-27T11:25:48.518Z,10.54
2023-01-27T11:28:39.066Z,12.15
2023-01-27T11:31:54.781Z,12.95
2023-01-27T11:34:43.931Z,14.09
2023-01-27T11:37:21.181Z,13.79
2023-01-27T11:39:49.234Z,14.00
2023-01-27T11:42:17.703Z,13.38
2023-01-27T11:44:46.171Z,14.10
2023-01-27T11:47:27.712Z,13.79
2023-01-27T11:49:57.755Z,13.36
2023-01-27T11:52:29.129Z,13.42
2023-01-27T11:54:57.151Z,12.80
2023-01-27T11:57:27.565Z,13.82
2023-01-27T12:00:07.487Z,13.90
2023-01-27T12:03:07.749Z,12.81
2023-01-27T12:05:41.721Z,13.35
2023-01-27T12:08:09.496Z,13.42
2023-01-27T12:10:42.227Z,13.91
2023-01-27T12:13:15.651Z,14.32
2023-01-27T12:16:05.385Z,13.79
2023-01-27T12:18:35.593Z,14.44
2023-01-27T12:21:06.722Z,14.24
2023-01-27T12:23:40.699Z,14.10
2023-01-27T12:26:11.966Z,11.70
2023-01-27T12:28:49.809Z,12.88
2023-01-27T12:31:29.987Z,14.04
2023-01-27T12:34:02.748Z,14.33
2023-01-27T12:36:38.836Z,14.84
2023-01-27T12:39:07.800Z,14.59
2023-01-27T12:41:37.822Z,14.01
2023-01-27T12:44:17.638Z,14.38
2023-01-27T12:47:03.796Z,14.55
2023-01-27T12:49:43.493Z,14.30
2023-01-27T12:52:20.164Z,14.55
2023-01-27T12:54:48.284Z,15.27
2023-01-27T12:57:19.924Z,15.51
2023-01-27T12:59:54.947Z,15.98
2023-01-27T13:02:30.697Z,14.86
2023-01-27T13:05:02.434Z,15.34
2023-01-27T13:07:44.086Z,14.51
2023-01-27T13:10:22.053Z,15.40
2023-01-27T13:12:55.137Z,14.74
2023-01-27T13:15:25.238Z,13.89
2023-01-27T13:17:58.657Z,14.91
2023-01-27T13:20:31.000Z,14.52
2023-01-27T13:23:08.052Z,13.90
2023-01-27T13:26:04.894Z,14.88
2023-01-27T13:28:51.700Z,14.95
2023-01-27T13:31:43.276Z,13.45
2023-01-27T13:34:40.657Z,15.14
2023-01-27T13:37:40.256Z,15.31
2023-01-27T13:40:16.972Z,13.87
2023-01-27T13:43:01.544Z,14.68
2023-01-27T13:45:57.309Z,15.95
2023-01-27T13:48:32.281Z,15.94
2023-01-27T13:51:14.189Z,15.97
2023-01-27T13:53:42.153Z,16.14
2023-01-27T13:56:21.705Z,16.22
2023-01-27T13:59:24.164Z,15.09
2023-01-27T14:02:04.217Z,15.81
2023-01-27T14:04:59.406Z,16.80
2023-01-27T14:07:37.700Z,16.83
2023-01-27T14:10:08.067Z,18.47
2023-01-27T14:12:54.950Z,17.62
2023-01-27T14:15:22.454Z,18.40
2023-01-27T14:17:57.441Z,19.86
2023-01-27T14:20:55.843Z,21.00
2023-01-27T14:24:01.083Z,21.37
2023-01-27T14:26:31.752Z,21.63
2023-01-27T14:29:23.778Z,21.58
2023-01-27T14:32:30.318Z,20.72
2023-01-27T14:35:28.631Z,18.57
2023-01-27T14:38:26.125Z,16.95
2023-01-27T14:41:14.645Z,15.98
2023-01-27T14:43:45.749Z,15.49
2023-01-27T14:46:31.873Z,14.10
2023-01-27T14:49:08.713Z,12.88
2023-01-27T14:52:02.869Z,11.93
2023-01-27T14:54:52.782Z,11.57
2023-01-27T14:57:34.632Z,11.42
2023-01-27T15:00:19.795Z,11.14
2023-01-27T15:03:21.610Z,10.55
2023-01-27T15:06:07.907Z,10.08
2023-01-27T15:08:56.801Z,9.73
2023-01-27T15:11:51.929Z,9.39
2023-01-27T15:14:38.390Z,9.12
2023-01-27T15:17:32.597Z,8.94
2023-01-27T15:20:53.132Z,8.99
2023-01-27T15:23:35.676Z,8.86
2023-01-27T15:26:06.751Z,8.85
2023-01-27T15:28:38.956Z,8.76
2023-01-27T15:31:09.665Z,8.62
2023-01-27T15:34:15.733Z,8.38
2023-01-27T15:37:11.757Z,8.33
2023-01-27T15:40:03.938Z,8.15
2023-01-27T15:42:52.429Z,8.10
2023-01-27T15:45:26.606Z,8.11
2023-01-27T15:48:00.943Z,8.12
2023-01-27T15:50:35.763Z,8.07
2023-01-27T15:53:16.027Z,7.81
2023-01-27T15:55:53.546Z,7.71
2023-01-27T15:58:37.924Z,7.74
2023-01-27T16:01:09.962Z,7.77
2023-01-27T16:03:43.992Z,7.62
2023-01-27T16:06:23.415Z,7.65
2023-01-27T16:08:53.601Z,7.57
2023-01-27T16:11:23.297Z,7.46
2023-01-27T16:13:52.281Z,7.34
2023-01-27T16:16:19.840Z,7.40
2023-01-27T16:19:09.820Z,7.05
2023-01-27T16:21:49.657Z,6.91
2023-01-27T16:24:49.142Z,6.99
2023-01-27T16:27:45.388Z,6.68
2023-01-27T16:30:26.559Z,6.43
2023-01-27T16:33:07.558Z,6.45
2023-01-27T16:35:47.618Z,6.65
2023-01-27T16:38:31.501Z,6.79
2023-01-27T16:41:09.576Z,6.72
2023-01-27T16:44:20.881Z,6.67
2023-01-27T16:46:52.323Z,6.63
2023-01-27T16:49:24.702Z,6.61
2023-01-27T16:51:58.182Z,6.58
2023-01-27T16:54:34.974Z,6.56
2023-01-27T16:57:05.683Z,6.42
2023-01-27T16:59:38.777Z,6.18
2023-01-27T17:02:18.958Z,6.23
2023-01-27T17:04:54.437Z,6.25
2023-01-27T17:07:22.482Z,6.17
2023-01-27T17:09:54.973Z,6.10
2023-01-27T17:12:55.511Z,6.19
2023-01-27T17:15:31.265Z,6.21
2023-01-27T17:17:59.088Z,6.32
2023-01-27T17:20:32.163Z,6.18
2023-01-27T17:23:02.842Z,6.17
2023-01-27T17:25:34.634Z,6.14
2023-01-27T17:28:07.419Z,6.01
2023-01-27T17:30:39.864Z,6.04
2023-01-27T17:33:15.265Z,5.98
2023-01-27T17:35:51.297Z,5.98
2023-01-27T17:38:24.310Z,5.96
2023-01-27T17:40:54.450Z,5.90
2023-01-27T17:43:31.975Z,5.92
2023-01-27T17:46:05.814Z,5.80
2023-01-27T17:48:35.867Z,5.79
2023-01-27T17:51:05.661Z,5.83
2023-01-27T17:53:38.862Z,5.75
2023-01-27T17:56:40.582Z,5.79
2023-01-27T17:59:18.285Z,5.84
2023-01-27T18:01:48.897Z,5.71
2023-01-27T18:04:17.563Z,5.81
2023-01-27T18:06:45.415Z,6.08
2023-01-27T18:09:18.246Z,5.88
2023-01-27T18:11:58.344Z,5.76
2023-01-27T18:14:26.486Z,5.70
2023-01-27T18:17:03.365Z,5.86
2023-01-27T18:19:31.579Z,5.92
2023-01-27T18:22:13.515Z,5.89
2023-01-27T18:24:52.609Z,5.72
2023-01-27T18:27:28.979Z,5.73
2023-01-27T18:30:19.173Z,5.67
2023-01-27T18:32:50.729Z,5.71
2023-01-27T18:35:30.329Z,5.61
2023-01-27T18:38:03.969Z,5.29
2023-01-27T18:40:37.204Z,5.40
2023-01-27T18:43:05.821Z,5.28
2023-01-27T18:45:33.552Z,5.47
2023-01-27T18:48:03.634Z,5.20
2023-01-27T18:50:31.735Z,5.41
2023-01-27T18:53:00.384Z,5.21
2023-01-27T18:55:30.513Z,5.24
2023-01-27T18:57:59.596Z,5.21
2023-01-27T19:00:42.107Z,5.19
2023-01-27T19:03:18.095Z,5.29
2023-01-27T19:05:46.895Z,5.43
2023-01-27T19:08:19.925Z,5.48
2023-01-27T19:10:48.607Z,5.49
2023-01-27T19:13:19.249Z,5.61
2023-01-27T19:15:53.148Z,5.58
2023-01-27T19:18:21.206Z,5.54
2023-01-27T19:20:49.110Z,5.59
2023-01-27T19:23:18.612Z,5.60
2023-01-27T19:25:48.424Z,5.72
2023-01-27T19:28:38.106Z,5.76
2023-01-27T19:31:07.552Z,5.74
2023-01-27T19:33:37.332Z,5.75
2023-01-27T19:36:25.367Z,5.69
2023-01-27T19:39:01.470Z,5.72
2023-01-27T19:41:29.264Z,5.56
2023-01-27T19:43:57.406Z,5.71
2023-01-27T19:46:25.290Z,5.52
2023-01-27T19:48:53.100Z,5.70
2023-01-27T19:51:21.386Z,5.61
2023-01-27T19:53:48.936Z,5.75
2023-01-27T19:56:20.101Z,5.75
2023-01-27T19:58:51.855Z,5.59
2023-01-27T20:01:20.865Z,5.71
2023-01-27T20:03:49.879Z,5.54
2023-01-27T20:06:26.990Z,5.74
2023-01-27T20:08:59.057Z,5.78
2023-01-27T20:11:42.003Z,5.75
2023-01-27T20:14:14.852Z,5.73
2023-01-27T20:16:43.616Z,5.69
2023-01-27T20:19:15.241Z,5.63
2023-01-27T20:21:43.935Z,5.54
2023-01-27T20:24:19.079Z,5.49
2023-01-27T20:26:47.127Z,5.62
2023-01-27T20:29:14.847Z,5.53
2023-01-27T20:31:43.606Z,5.49
2023-01-27T20:34:13.104Z,5.48
2023-01-27T20:36:40.857Z,5.29
2023-01-27T20:39:08.480Z,5.23
2023-01-27T20:41:35.985Z,5.28
2023-01-27T20:44:03.876Z,5.20
2023-01-27T20:46:31.993Z,5.11
2023-01-27T20:48:59.683Z,5.16
2023-01-27T20:51:27.603Z,5.01
2023-01-27T20:53:55.291Z,4.98
2023-01-27T20:56:23.796Z,4.78
2023-01-27T20:58:51.470Z,4.78
2023-01-27T21:01:22.473Z,4.71
2023-01-27T21:03:51.416Z,4.75
2023-01-27T21:06:20.296Z,4.76
2023-01-27T21:08:49.257Z,4.77
2023-01-27T21:11:19.656Z,4.77
2023-01-27T21:13:48.467Z,4.77
2023-01-27T21:16:16.216Z,4.63
2023-01-27T21:18:44.226Z,4.47
2023-01-27T21:21:27.557Z,4.42
2023-01-27T21:23:56.011Z,4.60
2023-01-27T21:26:24.718Z,4.54
2023-01-27T21:28:52.862Z,4.54
2023-01-27T21:31:22.335Z,4.62
2023-01-27T21:33:50.728Z,4.60
2023-01-27T21:36:19.432Z,4.48
2023-01-27T21:38:50.331Z,4.61
2023-01-27T21:41:45.272Z,4.52
2023-01-27T21:44:51.670Z,4.36
2023-01-27T21:47:19.531Z,4.29
2023-01-27T21:50:04.400Z,4.45
2023-01-27T21:52:39.534Z,4.28
2023-01-27T21:55:12.643Z,4.17
2023-01-27T21:57:40.907Z,4.08
2023-01-27T22:00:10.876Z,3.91
2023-01-27T22:02:43.398Z,3.93
2023-01-27T22:05:12.774Z,3.82
2023-01-27T22:07:42.116Z,3.99
2023-01-27T22:10:18.691Z,4.12
2023-01-27T22:12:47.547Z,4.11
2023-01-27T22:15:16.953Z,4.24
2023-01-27T22:17:44.887Z,4.16
2023-01-27T22:20:16.787Z,4.17
2023-01-27T22:22:45.876Z,4.30
2023-01-27T22:25:16.145Z,4.31
2023-01-27T22:27:44.702Z,4.28
2023-01-27T22:30:15.178Z,4.26
2023-01-27T22:32:43.519Z,4.27
2023-01-27T22:35:14.143Z,4.33
2023-01-27T22:37:42.426Z,4.40
2023-01-27T22:40:11.816Z,4.54
2023-01-27T22:42:42.401Z,4.47
2023-01-27T22:45:11.009Z,4.60
2023-01-27T22:47:39.075Z,4.59
2023-01-27T22:50:07.428Z,4.74
2023-01-27T22:52:39.386Z,4.65
2023-01-27T22:55:10.147Z,4.74
2023-01-27T22:57:37.773Z,4.84
2023-01-27T23:00:07.206Z,4.76
2023-01-27T23:02:35.911Z,4.76
2023-01-27T23:05:04.127Z,4.82
2023-01-27T23:07:32.172Z,4.84
2023-01-27T23:09:59.890Z,5.00
2023-01-27T23:12:27.980Z,4.91
2023-01-27T23:14:55.959Z,4.85
2023-01-27T23:17:23.842Z,4.88
2023-01-27T23:19:51.779Z,4.79
2023-01-27T23:22:19.805Z,4.68
2023-01-27T23:24:47.805Z,4.68
2023-01-27T23:27:15.781Z,4.64
2023-01-27T23:29:43.349Z,4.46
2023-01-27T23:32:10.868Z,4.64
2023-01-27T23:34:39.107Z,4.67
2023-01-27T23:37:06.693Z,4.62
2023-01-27T23:39:34.653Z,4.91
2023-01-27T23:42:02.635Z,4.95
2023-01-27T23:44:30.211Z,5.06
2023-01-27T23:46:57.883Z,5.03
2023-01-27T23:49:26.045Z,5.09
2023-01-27T23:51:53.773Z,4.78
2023-01-27T23:54:21.396Z,4.90
2023-01-27T23:56:48.932Z,4.96
2023-01-27T23:59:16.466Z,4.92
